createdAt,value
2022-11-24T00:01:15.658Z,67.33
2022-11-24T00:03:44.073Z,61.67
2022-11-24T00:06:12.610Z,63.52
2022-11-24T00:08:40.686Z,65.53
2022-11-24T00:11:10.095Z,66.31
2022-11-24T00:13:39.003Z,66.78
2022-11-24T00:16:14.726Z,65.25
2022-11-24T00:18:42.864Z,64.98
2022-11-24T00:21:10.061Z,64.85
2022-11-24T00:23:37.267Z,65.99
2022-11-24T00:26:10.703Z,66.18
2022-11-24T00:28:38.244Z,66.25
2022-11-24T00:31:16.978Z,65.42
2022-11-24T00:33:44.130Z,66.82
2022-11-24T00:36:10.492Z,64.89
2022-11-24T00:38:36.925Z,66.23
2022-11-24T00:41:03.436Z,67.06
2022-11-24T00:43:29.798Z,66.69
2022-11-24T00:45:56.252Z,66.66
2022-11-24T00:48:22.862Z,67.26
2022-11-24T00:51:03.624Z,67.76
2022-11-24T00:53:30.390Z,67.95
2022-11-24T00:55:56.852Z,67.22
2022-11-24T00:58:24.951Z,68.14
2022-11-24T01:00:52.102Z,68.42
2022-11-24T01:03:20.647Z,68.39
2022-11-24T01:05:47.277Z,67.74
2022-11-24T01:08:13.779Z,67.92
2022-11-24T01:10:40.190Z,69.40
2022-11-24T01:13:06.599Z,68.63
2022-11-24T01:15:36.168Z,68.14
2022-11-24T01:18:04.016Z,68.87
2022-11-24T01:20:30.767Z,68.82
2022-11-24T01:22:57.165Z,69.96
2022-11-24T01:25:23.589Z,69.36
2022-11-24T01:27:49.988Z,68.69
2022-11-24T01:30:16.560Z,69.22
2022-11-24T01:32:42.899Z,66.71
2022-11-24T01:35:09.487Z,67.62
2022-11-24T01:37:35.961Z,67.77
2022-11-24T01:40:02.414Z,68.15
2022-11-24T01:42:39.784Z,68.14
2022-11-24T01:45:30.978Z,68.26
2022-11-24T01:47:58.035Z,68.67
2022-11-24T01:50:24.910Z,68.16
2022-11-24T01:52:56.650Z,68.33
2022-11-24T01:55:28.473Z,67.96
2022-11-24T01:58:13.062Z,68.68
2022-11-24T02:00:42.703Z,69.15
2022-11-24T02:03:10.383Z,69.34
2022-11-24T02:06:02.295Z,64.58
2022-11-24T02:08:40.846Z,65.60
2022-11-24T02:11:07.230Z,66.21
2022-11-24T02:13:36.752Z,67.30
2022-11-24T02:16:05.062Z,67.00
2022-11-24T02:18:31.494Z,66.65
2022-11-24T02:20:59.371Z,66.33
2022-11-24T02:24:01.147Z,65.89
2022-11-24T02:27:00.028Z,67.03
2022-11-24T02:29:26.462Z,66.28
2022-11-24T02:31:59.182Z,67.28
2022-11-24T02:34:25.551Z,67.89
2022-11-24T02:36:51.918Z,67.76
2022-11-24T02:39:18.449Z,66.59
2022-11-24T02:41:52.128Z,65.75
2022-11-24T02:44:21.930Z,65.86
2022-11-24T02:46:48.454Z,66.53
2022-11-24T02:49:16.116Z,66.51
2022-11-24T02:51:42.530Z,63.99
2022-11-24T02:54:08.914Z,66.78
2022-11-24T02:56:35.331Z,66.24
2022-11-24T02:59:01.689Z,66.24
2022-11-24T03:01:28.158Z,64.36
2022-11-24T03:03:54.548Z,64.67
2022-11-24T03:06:20.968Z,65.18
2022-11-24T03:08:47.337Z,64.67
2022-11-24T03:11:13.683Z,64.81
2022-11-24T03:13:40.108Z,65.13
2022-11-24T03:16:10.249Z,64.48
2022-11-24T03:18:36.687Z,64.39
2022-11-24T03:21:03.175Z,63.99
2022-11-24T03:23:29.523Z,64.15
2022-11-24T03:26:05.913Z,64.25
2022-11-24T03:28:32.332Z,61.53
2022-11-24T03:30:58.842Z,61.77
2022-11-24T03:33:25.248Z,62.32
2022-11-24T03:35:51.612Z,60.73
2022-11-24T03:38:17.989Z,61.07
2022-11-24T03:40:44.351Z,60.38
2022-11-24T03:43:10.721Z,60.51
2022-11-24T03:45:52.381Z,58.84
2022-11-24T03:48:21.143Z,59.81
2022-11-24T03:50:56.127Z,59.89
2022-11-24T03:53:23.663Z,60.47
2022-11-24T03:55:50.071Z,61.72
2022-11-24T03:58:16.536Z,59.51
2022-11-24T04:00:42.926Z,59.40
2022-11-24T04:03:09.455Z,58.59
2022-11-24T04:05:36.401Z,55.16
2022-11-24T04:08:05.206Z,59.51
2022-11-24T04:10:33.308Z,59.09
2022-11-24T04:12:59.719Z,56.89
2022-11-24T04:15:26.055Z,55.72
2022-11-24T04:17:54.898Z,55.77
2022-11-24T04:20:21.410Z,55.81
2022-11-24T04:22:50.600Z,58.53
2022-11-24T04:25:17.393Z,60.59
2022-11-24T04:27:44.088Z,58.46
2022-11-24T04:30:10.618Z,60.68
2022-11-24T04:32:37.050Z,58.27
2022-11-24T04:35:04.395Z,56.95
2022-11-24T04:37:30.850Z,57.50
2022-11-24T04:39:57.223Z,57.34
2022-11-24T04:42:23.583Z,59.04
2022-11-24T04:44:50.172Z,59.94
2022-11-24T04:47:24.686Z,58.66
2022-11-24T04:49:51.548Z,58.21
2022-11-24T04:52:19.777Z,60.38
2022-11-24T04:54:47.046Z,61.00
2022-11-24T04:57:18.254Z,62.09
2022-11-24T04:59:44.699Z,61.85
2022-11-24T05:02:11.371Z,59.81
2022-11-24T05:04:38.241Z,58.10
2022-11-24T05:07:05.521Z,59.93
2022-11-24T05:09:48.177Z,59.55
2022-11-24T05:12:18.199Z,60.77
2022-11-24T05:14:44.551Z,59.85
2022-11-24T05:17:10.997Z,59.02
2022-11-24T05:19:37.356Z,61.48
2022-11-24T05:22:03.808Z,59.78
2022-11-24T05:24:30.273Z,60.05
2022-11-24T05:26:56.677Z,60.58
2022-11-24T05:29:23.016Z,62.39
2022-11-24T05:31:49.507Z,57.63
2022-11-24T05:34:15.874Z,59.50
2022-11-24T05:36:54.402Z,58.50
2022-11-24T05:39:21.163Z,60.19
2022-11-24T05:41:47.557Z,56.46
2022-11-24T05:44:13.922Z,60.38
2022-11-24T05:46:40.369Z,60.34
2022-11-24T05:49:06.780Z,58.70
2022-11-24T05:51:33.414Z,62.01
2022-11-24T05:53:59.782Z,61.12
2022-11-24T05:56:26.131Z,61.33
2022-11-24T05:58:52.564Z,61.82
2022-11-24T06:01:18.935Z,57.93
2022-11-24T06:03:45.326Z,60.03
2022-11-24T06:06:11.687Z,60.74
2022-11-24T06:08:38.089Z,61.58
2022-11-24T06:11:19.426Z,63.03
2022-11-24T06:13:48.432Z,62.68
2022-11-24T06:16:15.419Z,60.76
2022-11-24T06:18:42.073Z,58.37
2022-11-24T06:21:11.229Z,59.10
2022-11-24T06:23:38.532Z,60.24
2022-11-24T06:26:05.043Z,61.72
2022-11-24T06:28:31.519Z,62.17
2022-11-24T06:31:05.096Z,60.73
2022-11-24T06:33:36.096Z,61.38
2022-11-24T06:36:05.094Z,61.98
2022-11-24T06:38:31.807Z,63.13
2022-11-24T06:41:02.547Z,61.97
2022-11-24T06:43:30.098Z,62.77
2022-11-24T06:45:57.352Z,63.54
2022-11-24T06:48:24.409Z,61.07
2022-11-24T06:50:51.083Z,60.91
2022-11-24T06:53:17.662Z,62.76
2022-11-24T06:55:45.020Z,61.67
2022-11-24T06:58:11.479Z,62.65
2022-11-24T07:00:38.736Z,64.12
2022-11-24T07:03:05.290Z,62.66
2022-11-24T07:05:31.668Z,62.48
2022-11-24T07:08:01.599Z,61.06
2022-11-24T07:10:28.036Z,63.08
2022-11-24T07:12:54.413Z,62.45
2022-11-24T07:15:20.803Z,62.96
2022-11-24T07:17:47.168Z,63.10
2022-11-24T07:20:13.552Z,62.63
2022-11-24T07:22:39.917Z,63.11
2022-11-24T07:25:09.537Z,63.78
2022-11-24T07:27:36.389Z,61.20
2022-11-24T07:30:03.594Z,57.60
2022-11-24T07:32:30.019Z,59.75
2022-11-24T07:34:56.404Z,59.85
2022-11-24T07:37:25.590Z,60.64
2022-11-24T07:39:56.084Z,60.33
2022-11-24T07:42:22.427Z,61.57
2022-11-24T07:44:48.827Z,58.90
2022-11-24T07:47:15.213Z,61.15
2022-11-24T07:49:41.591Z,63.17
2022-11-24T07:52:08.179Z,62.99
2022-11-24T07:54:34.822Z,64.44
2022-11-24T07:57:01.396Z,63.44
2022-11-24T07:59:27.736Z,63.74
2022-11-24T08:01:54.141Z,63.03
2022-11-24T08:04:20.600Z,59.54
2022-11-24T08:06:47.644Z,58.42
2022-11-24T08:09:14.206Z,58.34
2022-11-24T08:11:40.540Z,61.35
2022-11-24T08:14:06.912Z,60.29
2022-11-24T08:16:33.366Z,62.02
2022-11-24T08:18:59.799Z,62.61
2022-11-24T08:21:26.300Z,58.25
2022-11-24T08:23:57.278Z,59.61
2022-11-24T08:26:24.989Z,63.03
2022-11-24T08:28:58.765Z,63.30
2022-11-24T08:31:32.385Z,64.13
2022-11-24T08:33:59.567Z,63.09
2022-11-24T08:36:25.966Z,61.34
2022-11-24T08:38:57.169Z,63.46
2022-11-24T08:41:24.649Z,64.76
2022-11-24T08:43:51.465Z,63.37
2022-11-24T08:46:19.101Z,64.13
2022-11-24T08:48:53.025Z,62.49
2022-11-24T08:51:25.045Z,63.00
2022-11-24T08:53:55.748Z,61.06
2022-11-24T08:56:22.407Z,63.46
2022-11-24T08:58:48.874Z,63.14
2022-11-24T09:01:16.997Z,63.10
2022-11-24T09:03:50.404Z,64.75
2022-11-24T09:06:23.495Z,63.68
2022-11-24T09:08:50.159Z,61.14
2022-11-24T09:11:17.176Z,60.74
2022-11-24T09:13:43.867Z,61.91
2022-11-24T09:16:18.221Z,59.95
2022-11-24T09:18:44.718Z,62.71
2022-11-24T09:21:16.636Z,59.46
2022-11-24T09:23:43.940Z,60.26
2022-11-24T09:26:14.033Z,58.52
2022-11-24T09:28:41.276Z,54.13
2022-11-24T09:31:10.739Z,55.25
2022-11-24T09:33:38.311Z,56.42
2022-11-24T09:36:05.774Z,54.69
2022-11-24T09:38:32.292Z,60.08
2022-11-24T09:41:17.526Z,53.37
2022-11-24T09:43:58.648Z,51.98
2022-11-24T09:46:35.246Z,52.70
2022-11-24T09:49:04.536Z,50.52
2022-11-24T09:51:33.584Z,48.19
2022-11-24T09:54:06.008Z,48.65
2022-11-24T09:56:35.023Z,51.23
2022-11-24T09:59:14.570Z,52.26
2022-11-24T10:01:42.829Z,52.46
2022-11-24T10:04:22.439Z,52.73
2022-11-24T10:07:02.663Z,53.95
2022-11-24T10:09:50.086Z,53.64
2022-11-24T10:12:39.099Z,52.33
2022-11-24T10:15:25.333Z,53.80
2022-11-24T10:17:57.727Z,53.67
2022-11-24T10:20:36.220Z,55.98
2022-11-24T10:23:27.429Z,56.16
2022-11-24T10:25:57.527Z,54.42
2022-11-24T10:28:32.213Z,53.85
2022-11-24T10:31:29.955Z,54.66
2022-11-24T10:34:03.316Z,53.31
2022-11-24T10:36:43.685Z,51.02
2022-11-24T10:39:35.753Z,52.64
2022-11-24T10:42:10.108Z,53.11
2022-11-24T10:44:36.583Z,53.06
2022-11-24T10:47:03.589Z,52.92
2022-11-24T10:49:33.595Z,52.53
2022-11-24T10:52:16.475Z,52.11
2022-11-24T10:54:55.995Z,49.65
2022-11-24T10:57:48.850Z,50.25
2022-11-24T11:00:18.185Z,50.91
2022-11-24T11:02:45.981Z,50.82
2022-11-24T11:05:27.580Z,51.07
2022-11-24T11:08:16.050Z,50.88
2022-11-24T11:10:44.031Z,50.15
2022-11-24T11:13:30.340Z,51.55
2022-11-24T11:15:58.659Z,50.16
2022-11-24T11:18:31.806Z,49.83
2022-11-24T11:21:04.161Z,48.55
2022-11-24T11:23:36.146Z,48.82
2022-11-24T11:26:21.690Z,48.92
2022-11-24T11:31:15.288Z,48.33
2022-11-24T11:34:44.158Z,46.21
2022-11-24T11:37:14.415Z,44.60
2022-11-24T11:40:16.071Z,45.99
2022-11-24T11:43:02.511Z,46.31
2022-11-24T11:45:36.440Z,47.02
2022-11-24T11:48:03.132Z,46.46
2022-11-24T11:51:14.780Z,44.73
2022-11-24T11:53:46.358Z,47.72
2022-11-24T11:56:24.839Z,45.94
2022-11-24T11:59:00.299Z,45.15
2022-11-24T12:01:51.591Z,45.34
2022-11-24T12:04:20.913Z,45.15
2022-11-24T12:06:53.294Z,44.87
2022-11-24T12:09:28.971Z,45.60
2022-11-24T12:12:21.583Z,41.79
2022-11-24T12:14:51.129Z,44.24
2022-11-24T12:18:05.954Z,45.29
2022-11-24T12:20:46.403Z,43.63
2022-11-24T12:23:18.861Z,44.11
2022-11-24T12:25:58.423Z,45.03
2022-11-24T12:28:35.515Z,44.54
2022-11-24T12:31:05.749Z,45.24
2022-11-24T12:34:22.018Z,45.04
2022-11-24T12:37:01.391Z,45.71
2022-11-24T12:39:51.919Z,46.24
2022-11-24T12:42:50.386Z,45.79
2022-11-24T12:45:22.601Z,45.03
2022-11-24T12:48:12.194Z,43.26
2022-11-24T12:50:40.800Z,44.24
2022-11-24T12:53:22.013Z,44.56
2022-11-24T12:55:48.634Z,44.26
2022-11-24T12:58:36.156Z,45.16
2022-11-24T13:01:16.703Z,45.55
2022-11-24T13:03:58.688Z,44.34
2022-11-24T13:06:33.685Z,45.48
2022-11-24T13:09:08.120Z,45.90
2022-11-24T13:11:46.139Z,46.45
2022-11-24T13:14:22.567Z,45.36
2022-11-24T13:19:48.177Z,45.04
2022-11-24T13:22:18.736Z,45.66
2022-11-24T13:24:45.297Z,44.36
2022-11-24T13:27:19.656Z,44.71
2022-11-24T13:29:48.082Z,46.57
2022-11-24T13:32:14.479Z,46.53
2022-11-24T13:34:41.070Z,47.95
2022-11-24T13:37:31.652Z,48.28
2022-11-24T13:40:22.716Z,48.35
2022-11-24T13:43:00.283Z,48.91
2022-11-24T13:45:39.599Z,49.08
2022-11-24T13:48:22.554Z,48.95
2022-11-24T13:50:53.974Z,49.03
2022-11-24T13:53:33.386Z,48.27
2022-11-24T13:56:02.861Z,48.35
2022-11-24T13:58:44.369Z,47.28
2022-11-24T14:01:28.337Z,48.22
2022-11-24T14:04:30.988Z,46.95
2022-11-24T14:07:07.900Z,46.67
2022-11-24T14:09:44.710Z,46.18
2022-11-24T14:12:15.558Z,45.81
2022-11-24T14:14:44.330Z,46.37
2022-11-24T14:17:14.523Z,46.27
2022-11-24T14:19:42.765Z,46.16
2022-11-24T14:22:18.735Z,46.18
2022-11-24T14:24:50.986Z,46.14
2022-11-24T14:27:20.045Z,48.59
2022-11-24T14:29:58.219Z,47.23
2022-11-24T14:32:24.749Z,46.04
2022-11-24T14:34:52.152Z,48.48
2022-11-24T14:37:21.598Z,49.24
2022-11-24T14:39:48.039Z,47.35
2022-11-24T14:42:17.295Z,47.51
2022-11-24T14:44:49.051Z,48.22
2022-11-24T14:47:31.292Z,49.28
2022-11-24T14:50:23.908Z,49.03
2022-11-24T14:52:55.809Z,50.04
2022-11-24T14:55:31.243Z,50.27
2022-11-24T14:57:58.904Z,50.29
2022-11-24T15:00:28.611Z,49.29
2022-11-24T15:03:13.521Z,50.96
2022-11-24T15:05:58.356Z,51.27
2022-11-24T15:08:27.400Z,50.97
2022-11-24T15:11:00.387Z,54.06
2022-11-24T15:13:28.179Z,54.60
2022-11-24T15:16:02.938Z,54.70
2022-11-24T15:18:35.928Z,55.37
2022-11-24T15:21:03.018Z,60.24
2022-11-24T15:23:33.804Z,60.05
2022-11-24T15:26:03.060Z,60.23
2022-11-24T15:28:30.821Z,62.84
2022-11-24T15:31:06.470Z,63.62
2022-11-24T15:33:33.178Z,63.08
2022-11-24T15:35:59.807Z,63.76
2022-11-24T15:38:26.309Z,64.74
2022-11-24T15:40:55.086Z,64.34
2022-11-24T15:43:31.802Z,64.87
2022-11-24T15:45:58.986Z,65.65
2022-11-24T15:48:25.591Z,64.37
2022-11-24T15:50:53.245Z,67.07
2022-11-24T15:53:34.170Z,66.34
2022-11-24T15:56:02.514Z,67.50
2022-11-24T15:58:28.871Z,64.70
2022-11-24T16:00:55.337Z,66.01
2022-11-24T16:06:15.869Z,65.78
2022-11-24T16:08:46.020Z,66.17
2022-11-24T16:11:12.519Z,66.15
2022-11-24T16:13:39.010Z,66.04
2022-11-24T16:16:05.858Z,66.35
2022-11-24T16:18:32.283Z,66.56
2022-11-24T16:20:58.742Z,66.65
2022-11-24T16:23:25.161Z,65.81
2022-11-24T16:25:51.839Z,65.70
2022-11-24T16:28:18.402Z,64.67
2022-11-24T16:30:49.399Z,65.93
2022-11-24T16:33:16.024Z,65.96
2022-11-24T16:35:42.452Z,65.26
2022-11-24T16:38:17.877Z,65.75
2022-11-24T16:40:44.605Z,65.78
2022-11-24T16:43:10.997Z,66.63
2022-11-24T16:45:40.813Z,65.53
2022-11-24T16:48:10.227Z,66.62
2022-11-24T16:50:37.547Z,67.18
2022-11-24T16:53:03.917Z,65.67
2022-11-24T16:55:30.252Z,64.79
2022-11-24T16:57:56.609Z,65.27
2022-11-24T17:00:23.231Z,65.34
2022-11-24T17:02:49.688Z,64.97
2022-11-24T17:05:16.424Z,64.94
2022-11-24T17:07:42.892Z,65.66
2022-11-24T17:10:09.618Z,65.62
2022-11-24T17:12:36.665Z,64.60
2022-11-24T17:15:30.888Z,65.13
2022-11-24T17:18:22.391Z,64.53
2022-11-24T17:20:36.837Z,62.02
2022-11-24T17:23:03.214Z,64.36
2022-11-24T17:25:29.571Z,64.07
2022-11-24T17:27:55.935Z,61.98
2022-11-24T17:30:22.288Z,63.90
2022-11-24T17:32:51.248Z,63.48
2022-11-24T17:35:21.616Z,65.33
2022-11-24T17:37:47.973Z,65.70
2022-11-24T17:40:34.292Z,65.37
2022-11-24T17:43:01.085Z,65.38
2022-11-24T17:45:28.756Z,64.59
2022-11-24T17:47:56.117Z,64.78
2022-11-24T17:50:26.056Z,64.74
2022-11-24T17:52:53.094Z,65.78
2022-11-24T17:55:19.515Z,59.26
2022-11-24T17:57:45.914Z,61.13
2022-11-24T18:00:12.967Z,61.40
2022-11-24T18:02:39.406Z,64.34
2022-11-24T18:05:06.040Z,63.30
2022-11-24T18:07:34.712Z,64.13
2022-11-24T18:10:01.139Z,62.81
2022-11-24T18:12:27.510Z,60.68
2022-11-24T18:14:53.939Z,61.33
2022-11-24T18:17:20.342Z,62.09
2022-11-24T18:19:46.732Z,62.41
2022-11-24T18:22:13.094Z,62.81
2022-11-24T18:24:39.790Z,63.95
2022-11-24T18:27:06.435Z,64.00
2022-11-24T18:29:32.850Z,63.72
2022-11-24T18:31:59.321Z,65.00
2022-11-24T18:34:25.798Z,64.38
2022-11-24T18:36:52.645Z,63.35
2022-11-24T18:39:19.273Z,63.23
2022-11-24T18:41:46.666Z,63.53
2022-11-24T18:44:13.139Z,62.91
2022-11-24T18:46:39.517Z,58.48
2022-11-24T18:49:07.108Z,58.08
2022-11-24T18:51:33.875Z,63.51
2022-11-24T18:54:02.052Z,63.66
2022-11-24T18:56:29.118Z,63.04
2022-11-24T18:58:56.457Z,63.65
2022-11-24T19:01:25.204Z,60.63
2022-11-24T19:03:54.553Z,63.11
2022-11-24T19:06:26.847Z,64.86
2022-11-24T19:08:54.918Z,63.59
2022-11-24T19:11:29.172Z,60.82
2022-11-24T19:13:56.649Z,63.06
2022-11-24T19:16:24.036Z,64.35
2022-11-24T19:18:54.264Z,64.92
2022-11-24T19:21:21.421Z,61.94
2022-11-24T19:23:47.857Z,63.68
2022-11-24T19:26:14.260Z,61.47
2022-11-24T19:28:40.735Z,59.17
2022-11-24T19:31:10.695Z,64.20
2022-11-24T19:33:37.332Z,64.24
2022-11-24T19:36:07.194Z,63.72
2022-11-24T19:38:35.064Z,60.55
2022-11-24T19:41:02.278Z,64.06
2022-11-24T19:43:28.919Z,61.18
2022-11-24T19:46:00.719Z,63.70
2022-11-24T19:48:30.870Z,63.70
2022-11-24T19:51:01.467Z,63.11
2022-11-24T19:53:28.459Z,62.97
2022-11-24T19:55:54.892Z,63.07
2022-11-24T19:58:21.344Z,64.74
2022-11-24T20:00:47.753Z,65.91
2022-11-24T20:03:14.469Z,64.75
2022-11-24T20:05:40.888Z,63.18
2022-11-24T20:08:07.283Z,62.14
2022-11-24T20:10:33.653Z,64.67
2022-11-24T20:13:00.077Z,65.33
2022-11-24T20:15:26.424Z,64.55
2022-11-24T20:17:52.812Z,65.57
2022-11-24T20:20:19.260Z,63.31
2022-11-24T20:22:45.645Z,63.50
2022-11-24T20:25:12.008Z,61.98
2022-11-24T20:27:38.403Z,64.06
2022-11-24T20:30:05.578Z,65.97
2022-11-24T20:32:31.967Z,65.40
2022-11-24T20:34:58.358Z,65.32
2022-11-24T20:37:25.818Z,63.90
2022-11-24T20:39:52.292Z,65.42
2022-11-24T20:42:18.690Z,67.01
2022-11-24T20:44:45.090Z,61.36
2022-11-24T20:47:11.459Z,62.39
2022-11-24T20:49:37.858Z,65.41
2022-11-24T20:52:04.545Z,64.73
2022-11-24T20:54:31.042Z,66.20
2022-11-24T20:56:57.376Z,66.14
2022-11-24T20:59:25.050Z,64.69
2022-11-24T21:01:55.123Z,65.19
2022-11-24T21:04:25.447Z,63.01
2022-11-24T21:06:52.135Z,59.97
2022-11-24T21:09:19.001Z,59.93
2022-11-24T21:11:45.865Z,62.74
2022-11-24T21:14:12.855Z,65.15
2022-11-24T21:16:41.371Z,66.27
2022-11-24T21:19:11.668Z,63.38
2022-11-24T21:21:39.171Z,62.73
2022-11-24T21:24:13.898Z,63.01
2022-11-24T21:26:41.954Z,65.10
2022-11-24T21:29:08.520Z,63.91
2022-11-24T21:31:37.047Z,63.04
2022-11-24T21:34:05.041Z,63.25
2022-11-24T21:36:34.002Z,66.22
2022-11-24T21:39:02.008Z,66.25
2022-11-24T21:41:29.416Z,64.23
2022-11-24T21:43:55.968Z,65.43
2022-11-24T21:46:22.980Z,65.46
2022-11-24T21:48:49.644Z,63.79
2022-11-24T21:51:19.255Z,66.08
2022-11-24T21:53:46.582Z,65.43
2022-11-24T21:56:16.860Z,66.49
2022-11-24T21:58:48.125Z,65.41
2022-11-24T22:01:16.014Z,65.85
2022-11-24T22:03:42.841Z,66.45
2022-11-24T22:06:09.403Z,66.58
2022-11-24T22:08:36.941Z,67.08
2022-11-24T22:11:12.125Z,65.67
2022-11-24T22:13:38.922Z,66.66
2022-11-24T22:16:17.314Z,64.81
2022-11-24T22:18:44.734Z,67.15
2022-11-24T22:21:18.979Z,66.71
2022-11-24T22:23:45.517Z,66.47
2022-11-24T22:26:14.322Z,67.27
2022-11-24T22:28:41.087Z,68.94
2022-11-24T22:31:10.635Z,67.81
2022-11-24T22:33:37.147Z,68.23
2022-11-24T22:36:04.140Z,67.38
2022-11-24T22:38:31.580Z,67.40
2022-11-24T22:41:05.998Z,68.91
2022-11-24T22:43:33.755Z,64.82
2022-11-24T22:46:27.140Z,66.49
2022-11-24T22:48:54.801Z,66.98
2022-11-24T22:51:26.861Z,67.27
2022-11-24T22:53:55.598Z,66.17
2022-11-24T22:56:22.442Z,68.76
2022-11-24T22:58:48.983Z,67.71
2022-11-24T23:01:18.186Z,68.67
2022-11-24T23:03:45.298Z,65.59
2022-11-24T23:06:14.470Z,62.79
2022-11-24T23:08:41.234Z,58.50
2022-11-24T23:11:29.735Z,63.95
2022-11-24T23:14:00.330Z,65.16
2022-11-24T23:16:26.986Z,67.65
2022-11-24T23:18:54.211Z,66.76
2022-11-24T23:21:29.019Z,67.15
2022-11-24T23:23:56.266Z,64.38
2022-11-24T23:26:31.540Z,63.51
2022-11-24T23:28:58.077Z,63.96
2022-11-24T23:31:28.543Z,64.01
2022-11-24T23:33:56.957Z,66.06
2022-11-24T23:36:23.379Z,66.53
2022-11-24T23:38:49.841Z,65.49
2022-11-24T23:41:19.054Z,67.73
2022-11-24T23:43:45.549Z,69.38
2022-11-24T23:46:17.943Z,68.23
2022-11-24T23:48:44.512Z,67.91
2022-11-24T23:51:24.882Z,69.07
2022-11-24T23:53:52.098Z,67.56
2022-11-24T23:56:21.049Z,64.87
2022-11-24T23:58:47.566Z,63.34
